Time;durP1;ratioP1;P1;durP2;ratioP2;P2;SDS_P1;SDS_P2;PMS_P1;PMS_P2;Temp;Humidity;BMP_temperature;BMP_pressure;BME280_temperature;BME280_humidity;BME280_pressure;Samples;Min_cycle;Max_cycle;Signal;HPM_P1;HPM_P2
2024/01/14 00:00:14;;;;;;;7.63;3.10;;;;;;;;;;5054931;28;20169;-58
2024/01/14 00:02:39;;;;;;;6.93;3.00;;;;;;;;;;5068310;28;20480;-58
2024/01/14 00:05:05;;;;;;;7.97;3.50;;;;;;;;;;5071865;28;20400;-59
2024/01/14 00:07:30;;;;;;;7.32;3.15;;;;;;;;;;5071663;28;20543;-58
2024/01/14 00:09:57;;;;;;;8.20;3.42;;;;;;;;;;5064569;28;20040;-58
2024/01/14 00:12:22;;;;;;;;;;;;;;;;;;5051610;28;20025;-59
2024/01/14 00:14:47;;;;;;;7.18;3.08;;;;;;;;;;5054006;28;19915;-58
2024/01/14 00:17:13;;;;;;;7.00;3.45;;;;;;;;;;5069097;28;20051;-59
2024/01/14 00:19:38;;;;;;;7.32;2.97;;;;;;;;;;5071258;28;20103;-57
2024/01/14 00:22:04;;;;;;;7.97;2.93;;;;;;;;;;5071040;28;20029;-58
2024/01/14 00:24:29;;;;;;;7.35;3.05;;;;;;;;;;5070842;28;20097;-58
2024/01/14 00:26:54;;;;;;;7.15;2.80;;;;;;;;;;5071255;28;20484;-58
2024/01/14 00:29:19;;;;;;;6.33;3.03;;;;;;;;;;5072141;28;20021;-58
2024/01/14 00:31:46;;;;;;;7.13;3.05;;;;;;;;;;5064998;28;20028;-59
2024/01/14 00:34:11;;;;;;;7.30;3.03;;;;;;;;;;5069581;28;20465;-58
2024/01/14 00:36:39;;;;;;;6.20;2.70;;;;;;;;;;5074405;28;20024;-58
2024/01/14 00:39:04;;;;;;;6.43;3.08;;;;;;;;;;5087693;28;20012;-58
2024/01/14 00:41:29;;;;;;;7.60;3.30;;;;;;;;;;5051059;28;20139;-58
2024/01/14 00:43:55;;;;;;;6.40;2.92;;;;;;;;;;5050637;28;20025;-58
2024/01/14 00:46:20;;;;;;;6.78;3.00;;;;;;;;;;5050700;28;20025;-59
2024/01/14 00:48:45;;;;;;;7.13;2.97;;;;;;;;;;5050857;28;20025;-58
2024/01/14 00:51:10;;;;;;;6.53;3.10;;;;;;;;;;5061620;28;20423;-58
2024/01/14 00:53:35;;;;;;;6.53;2.83;;;;;;;;;;5070577;28;20025;-58
2024/01/14 00:56:00;;;;;;;6.20;2.63;;;;;;;;;;5070278;28;20016;-59
2024/01/14 00:58:25;;;;;;;6.43;2.73;;;;;;;;;;5070492;28;20088;-59
2024/01/14 01:00:51;;;;;;;6.73;3.00;;;;;;;;;;5070480;28;20519;-58
2024/01/14 01:03:16;;;;;;;6.90;2.92;;;;;;;;;;5070403;28;20035;-59
2024/01/14 01:05:41;;;;;;;5.93;2.50;;;;;;;;;;5070147;28;20036;-58
2024/01/14 01:08:06;;;;;;;7.25;2.90;;;;;;;;;;5057040;28;20460;-58
2024/01/14 01:10:32;;;;;;;10.43;2.95;;;;;;;;;;5064061;28;20023;-58
2024/01/14 01:12:57;;;;;;;6.43;3.00;;;;;;;;;;5055113;28;20068;-58
2024/01/14 01:15:22;;;;;;;6.57;3.05;;;;;;;;;;5049530;28;21835;-59
2024/01/14 01:17:47;;;;;;;8.40;3.07;;;;;;;;;;5066710;28;20028;-57
2024/01/14 01:20:12;;;;;;;6.70;2.72;;;;;;;;;;5076545;28;20108;-59
2024/01/14 01:22:37;;;;;;;6.63;2.90;;;;;;;;;;5057705;28;20048;-57
2024/01/14 01:25:03;;;;;;;6.53;2.97;;;;;;;;;;5070233;28;20032;-60
2024/01/14 01:27:29;;;;;;;6.60;2.85;;;;;;;;;;5081584;28;20047;-60
2024/01/14 01:29:55;;;;;;;6.15;2.75;;;;;;;;;;5083301;28;20020;-59
2024/01/14 01:32:20;;;;;;;6.35;2.60;;;;;;;;;;5066204;28;20139;-61
2024/01/14 01:34:45;;;;;;;7.35;2.95;;;;;;;;;;5050041;28;20020;-61
2024/01/14 01:37:12;;;;;;;7.00;2.60;;;;;;;;;;5067786;28;20024;-60
2024/01/14 01:39:37;;;;;;;6.85;3.00;;;;;;;;;;5070302;28;20442;-60
2024/01/14 01:42:02;;;;;;;7.17;3.20;;;;;;;;;;5062012;28;20499;-59
2024/01/14 01:44:27;;;;;;;6.90;3.10;;;;;;;;;;5048599;28;20032;-58
2024/01/14 01:46:53;;;;;;;6.43;3.30;;;;;;;;;;5069570;28;20827;-58
2024/01/14 01:49:18;;;;;;;6.55;2.75;;;;;;;;;;5069099;28;20020;-59
2024/01/14 01:51:47;;;;;;;7.43;3.17;;;;;;;;;;5066469;28;20035;-60
2024/01/14 01:54:12;;;;;;;19.95;4.03;;;;;;;;;;5070852;28;20357;-60
2024/01/14 01:56:38;;;;;;;7.40;3.05;;;;;;;;;;5070695;28;20024;-60
2024/01/14 01:59:04;;;;;;;7.03;2.88;;;;;;;;;;5070622;28;20121;-59
2024/01/14 02:01:30;;;;;;;7.32;3.13;;;;;;;;;;5069970;28;20024;-59
2024/01/14 02:03:56;;;;;;;7.45;3.30;;;;;;;;;;5072596;28;20024;-60
2024/01/14 02:06:21;;;;;;;7.60;3.47;;;;;;;;;;5069760;28;20046;-59
2024/01/14 02:08:47;;;;;;;6.75;3.00;;;;;;;;;;5072379;28;20017;-57
2024/01/14 02:11:12;;;;;;;6.60;3.08;;;;;;;;;;5074483;28;20020;-59
2024/01/14 02:13:37;;;;;;;5.93;2.53;;;;;;;;;;5061559;28;20039;-59
2024/01/14 02:16:03;;;;;;;8.10;2.78;;;;;;;;;;5063905;28;20028;-56
2024/01/14 02:18:29;;;;;;;7.57;2.70;;;;;;;;;;5083363;28;20125;-59
2024/01/14 02:20:54;;;;;;;6.03;2.70;;;;;;;;;;5081002;28;20028;-59
2024/01/14 02:23:20;;;;;;;6.75;2.83;;;;;;;;;;5076525;28;20461;-59
2024/01/14 02:25:45;;;;;;;5.95;2.70;;;;;;;;;;5077554;28;20036;-59
2024/01/14 02:28:10;;;;;;;6.13;2.80;;;;;;;;;;5076513;28;20496;-59
2024/01/14 02:30:36;;;;;;;7.17;2.80;;;;;;;;;;5066024;28;20087;-59
2024/01/14 02:33:01;;;;;;;6.78;3.15;;;;;;;;;;5069131;28;20064;-60
2024/01/14 02:35:26;;;;;;;7.03;2.97;;;;;;;;;;5073632;28;20017;-60
2024/01/14 02:37:51;;;;;;;6.97;2.90;;;;;;;;;;5073695;28;20129;-58
2024/01/14 02:40:16;;;;;;;6.77;3.20;;;;;;;;;;5057875;28;20394;-59
2024/01/14 02:42:41;;;;;;;7.53;3.13;;;;;;;;;;5052700;28;20091;-59
2024/01/14 02:45:07;;;;;;;7.10;3.20;;;;;;;;;;5059619;28;20389;-58
2024/01/14 02:47:32;;;;;;;5.97;2.67;;;;;;;;;;5072472;28;20077;-59
2024/01/14 02:49:57;;;;;;;6.20;2.80;;;;;;;;;;5068869;28;20432;-59
2024/01/14 02:52:22;;;;;;;6.30;2.80;;;;;;;;;;5054864;28;20024;-59
2024/01/14 02:54:48;;;;;;;6.82;3.00;;;;;;;;;;5055497;28;20025;-58
2024/01/14 02:57:13;;;;;;;6.43;2.85;;;;;;;;;;5055603;28;20489;-58
2024/01/14 02:59:38;;;;;;;9.87;3.30;;;;;;;;;;5089266;28;20035;-60
2024/01/14 03:02:03;;;;;;;7.95;3.20;;;;;;;;;;5084582;28;20027;-58
2024/01/14 03:04:29;;;;;;;6.33;2.80;;;;;;;;;;5072649;28;20378;-58
2024/01/14 03:06:54;;;;;;;7.07;3.30;;;;;;;;;;5066242;28;20036;-60
2024/01/14 03:09:19;;;;;;;7.60;3.10;;;;;;;;;;5077532;28;20020;-58
2024/01/14 03:11:44;;;;;;;6.53;2.88;;;;;;;;;;5058196;28;20027;-59
2024/01/14 03:14:09;;;;;;;7.50;3.50;;;;;;;;;;5053218;28;20013;-59
2024/01/14 03:16:35;;;;;;;7.90;3.47;;;;;;;;;;5070389;28;20044;-59
2024/01/14 03:19:00;;;;;;;8.57;3.50;;;;;;;;;;5069483;28;20024;-57
2024/01/14 03:21:25;;;;;;;7.70;3.40;;;;;;;;;;5071178;28;20031;-59
2024/01/14 03:23:50;;;;;;;7.13;3.10;;;;;;;;;;5071144;28;20036;-61
2024/01/14 03:26:15;;;;;;;8.27;3.85;;;;;;;;;;5072799;28;20121;-60
2024/01/14 03:28:40;;;;;;;7.73;3.40;;;;;;;;;;5072329;28;20044;-59
2024/01/14 03:31:07;;;;;;;8.10;3.35;;;;;;;;;;5070522;28;20016;-58
2024/01/14 03:33:32;;;;;;;7.47;3.15;;;;;;;;;;5071502;28;20471;-59
2024/01/14 03:36:00;;;;;;;7.23;3.20;;;;;;;;;;5065412;28;20032;-58
2024/01/14 03:38:25;;;;;;;7.63;3.33;;;;;;;;;;5072318;28;20138;-59
2024/01/14 03:40:50;;;;;;;7.30;3.30;;;;;;;;;;5070640;28;20388;-58
2024/01/14 03:43:15;;;;;;;8.37;3.00;;;;;;;;;;5071772;28;20032;-59
2024/01/14 03:45:40;;;;;;;6.73;2.90;;;;;;;;;;5072232;28;20040;-59
2024/01/14 03:48:05;;;;;;;6.93;3.30;;;;;;;;;;5072296;28;20376;-58
2024/01/14 03:50:31;;;;;;;7.40;3.17;;;;;;;;;;5071885;28;20016;-58
2024/01/14 03:52:56;;;;;;;8.43;3.33;;;;;;;;;;5069702;28;20373;-59
2024/01/14 03:55:21;;;;;;;7.53;3.45;;;;;;;;;;5071694;28;20028;-59
2024/01/14 03:57:46;;;;;;;7.70;2.90;;;;;;;;;;5073830;28;20043;-59
2024/01/14 04:00:12;;;;;;;7.40;3.10;;;;;;;;;;5071882;28;20024;-58
2024/01/14 04:02:38;;;;;;;7.40;3.22;;;;;;;;;;5071524;28;20028;-59
2024/01/14 04:05:03;;;;;;;7.83;3.20;;;;;;;;;;5069420;28;20081;-59
2024/01/14 04:07:28;;;;;;;27.30;6.10;;;;;;;;;;5071639;28;20104;-58
2024/01/14 04:09:54;;;;;;;10.37;3.47;;;;;;;;;;5065431;28;20024;-57
2024/01/14 04:12:19;;;;;;;9.70;4.03;;;;;;;;;;5063090;28;20840;-60
2024/01/14 04:14:44;;;;;;;7.67;3.33;;;;;;;;;;5071428;28;20016;-60
2024/01/14 04:17:09;;;;;;;7.90;3.70;;;;;;;;;;5071310;28;20028;-60
2024/01/14 04:19:36;;;;;;;8.37;3.50;;;;;;;;;;5073662;28;20048;-59
2024/01/14 04:22:01;;;;;;;;;;;;;;;;;;5074787;28;20025;-59
2024/01/14 04:24:26;;;;;;;8.02;3.53;;;;;;;;;;5049894;28;19958;-60
2024/01/14 04:26:52;;;;;;;8.35;3.50;;;;;;;;;;5059182;28;20090;-59
2024/01/14 04:29:17;;;;;;;8.38;3.92;;;;;;;;;;5069288;28;20274;-58
2024/01/14 04:31:42;;;;;;;8.13;3.63;;;;;;;;;;5069950;28;20512;-58
2024/01/14 04:34:07;;;;;;;8.90;3.70;;;;;;;;;;5070863;28;20082;-59
2024/01/14 04:36:32;;;;;;;9.90;3.88;;;;;;;;;;5071172;28;20035;-60
2024/01/14 04:38:57;;;;;;;9.57;4.13;;;;;;;;;;5070727;28;20060;-59
2024/01/14 04:41:23;;;;;;;9.55;4.40;;;;;;;;;;5065468;28;20025;-60
2024/01/14 04:43:48;;;;;;;8.70;4.00;;;;;;;;;;5061367;28;20048;-59
2024/01/14 04:46:13;;;;;;;8.67;3.93;;;;;;;;;;5073738;28;20038;-58
2024/01/14 04:48:38;;;;;;;8.70;4.00;;;;;;;;;;5091474;28;20072;-59
2024/01/14 04:51:03;;;;;;;10.30;4.30;;;;;;;;;;5087691;28;20032;-59
2024/01/14 04:53:28;;;;;;;9.03;4.03;;;;;;;;;;5066163;28;20104;-59
2024/01/14 04:55:54;;;;;;;8.27;3.57;;;;;;;;;;5051042;28;20021;-57
2024/01/14 04:58:19;;;;;;;9.48;4.10;;;;;;;;;;5051431;28;20035;-57
2024/01/14 05:00:44;;;;;;;8.83;3.90;;;;;;;;;;5061007;28;20048;-59
2024/01/14 05:03:09;;;;;;;10.25;4.32;;;;;;;;;;5060866;28;20024;-58
2024/01/14 05:05:35;;;;;;;10.70;4.43;;;;;;;;;;5066631;28;20133;-60
2024/01/14 05:08:00;;;;;;;10.43;4.35;;;;;;;;;;5068695;28;20438;-59
2024/01/14 05:10:25;;;;;;;8.75;3.88;;;;;;;;;;5070728;28;20099;-58
2024/01/14 05:12:50;;;;;;;8.63;3.88;;;;;;;;;;5069857;28;20021;-59
2024/01/14 05:15:15;;;;;;;9.15;4.30;;;;;;;;;;5070555;28;20029;-59
2024/01/14 05:17:40;;;;;;;8.85;4.00;;;;;;;;;;5066188;28;20105;-59
2024/01/14 05:20:06;;;;;;;9.97;4.23;;;;;;;;;;5069569;28;20008;-60
2024/01/14 05:22:31;;;;;;;10.90;4.43;;;;;;;;;;5068777;28;20085;-59
2024/01/14 05:24:56;;;;;;;8.88;4.00;;;;;;;;;;5074145;28;20028;-58
2024/01/14 05:27:21;;;;;;;9.93;4.47;;;;;;;;;;5061050;28;20020;-59
2024/01/14 05:29:47;;;;;;;10.02;4.30;;;;;;;;;;5082329;28;20100;-60
2024/01/14 05:32:13;;;;;;;9.97;4.43;;;;;;;;;;5083403;28;20024;-61
2024/01/14 05:34:38;;;;;;;10.63;4.20;;;;;;;;;;5067128;28;20170;-56
2024/01/14 05:37:04;;;;;;;10.13;4.47;;;;;;;;;;5070269;28;20032;-59
2024/01/14 05:39:30;;;;;;;9.85;4.07;;;;;;;;;;5070688;28;20032;-59
2024/01/14 05:41:55;;;;;;;11.57;4.63;;;;;;;;;;5061591;28;20024;-59
2024/01/14 05:44:20;;;;;;;10.60;4.80;;;;;;;;;;5072014;28;20445;-57
2024/01/14 05:46:46;;;;;;;9.50;4.10;;;;;;;;;;5070350;28;20031;-57
2024/01/14 05:49:11;;;;;;;10.30;4.83;;;;;;;;;;5074550;28;20081;-60
2024/01/14 05:51:36;;;;;;;10.60;4.90;;;;;;;;;;5076271;28;20024;-59
2024/01/14 05:54:03;;;;;;;10.60;4.68;;;;;;;;;;5071162;28;20420;-60
2024/01/14 05:56:28;;;;;;;;;;;;;;;;;;5069099;28;20581;-59
2024/01/14 05:58:54;;;;;;;10.20;4.43;;;;;;;;;;5071351;28;19911;-59
2024/01/14 06:01:19;;;;;;;10.83;4.13;;;;;;;;;;5075211;28;20025;-56
2024/01/14 06:03:44;;;;;;;11.50;4.82;;;;;;;;;;5075900;28;20020;-59
2024/01/14 06:06:09;;;;;;;9.53;4.37;;;;;;;;;;5071975;28;20541;-60
2024/01/14 06:08:35;;;;;;;10.88;4.25;;;;;;;;;;5067034;28;20016;-59
2024/01/14 06:11:03;;;;;;;12.73;4.75;;;;;;;;;;5069949;28;20032;-59
2024/01/14 06:13:28;;;;;;;10.18;4.80;;;;;;;;;;5072785;28;20348;-59
2024/01/14 06:15:54;;;;;;;12.23;4.70;;;;;;;;;;5073769;28;20013;-59
2024/01/14 06:18:19;;;;;;;11.07;4.63;;;;;;;;;;5073405;28;20024;-59
2024/01/14 06:20:44;;;;;;;10.48;4.75;;;;;;;;;;5073673;28;20043;-57
2024/01/14 06:23:09;;;;;;;9.73;4.38;;;;;;;;;;5065998;28;20025;-57
2024/01/14 06:25:34;;;;;;;10.25;4.18;;;;;;;;;;5068512;28;20152;-58
2024/01/14 06:28:02;;;;;;;9.90;4.57;;;;;;;;;;5064854;28;20024;-58
2024/01/14 06:30:27;;;;;;;11.45;4.88;;;;;;;;;;5069779;28;20033;-58
2024/01/14 06:32:55;;;;;;;11.97;5.40;;;;;;;;;;5072083;28;20551;-59
2024/01/14 06:35:21;;;;;;;11.10;4.53;;;;;;;;;;5073669;28;20028;-59
2024/01/14 06:37:46;;;;;;;10.35;4.38;;;;;;;;;;5067958;22;20028;-56
2024/01/14 06:40:11;;;;;;;9.98;4.03;;;;;;;;;;5022713;28;20057;-55
2024/01/14 06:42:36;;;;;;;10.47;4.57;;;;;;;;;;5016324;28;20385;-55
2024/01/14 06:45:02;;;;;;;10.10;4.20;;;;;;;;;;5008430;28;20034;-54
2024/01/14 06:47:27;;;;;;;12.83;4.97;;;;;;;;;;5008059;28;20029;-56
2024/01/14 06:49:54;;;;;;;11.88;4.78;;;;;;;;;;5012792;28;20160;-55
2024/01/14 06:52:22;;;;;;;10.35;4.28;;;;;;;;;;5010098;28;20022;-54
2024/01/14 06:54:47;;;;;;;10.68;4.72;;;;;;;;;;5010848;28;20018;-55
2024/01/14 06:57:12;;;;;;;10.03;4.23;;;;;;;;;;5013918;28;20014;-55
2024/01/14 06:59:42;;;;;;;10.97;4.87;;;;;;;;;;5014265;28;20504;-55
2024/01/14 07:02:07;;;;;;;9.93;4.05;;;;;;;;;;5007017;28;20469;-55
2024/01/14 07:04:32;;;;;;;10.93;4.60;;;;;;;;;;5007329;28;20024;-55
2024/01/14 07:06:57;;;;;;;10.65;5.10;;;;;;;;;;4995277;28;20363;-55
2024/01/14 07:09:22;;;;;;;10.37;4.10;;;;;;;;;;4995059;28;20406;-55
2024/01/14 07:11:47;;;;;;;10.63;4.30;;;;;;;;;;5007972;28;20033;-57
2024/01/14 07:14:12;;;;;;;9.57;4.43;;;;;;;;;;5012059;28;20025;-56
2024/01/14 07:16:38;;;;;;;10.15;4.72;;;;;;;;;;5011522;28;20064;-57
2024/01/14 07:19:03;;;;;;;9.95;4.30;;;;;;;;;;5014266;28;20028;-56
2024/01/14 07:21:28;;;;;;;10.57;4.53;;;;;;;;;;5007774;28;20072;-55
2024/01/14 07:23:53;;;;;;;10.45;4.22;;;;;;;;;;5027375;28;20033;-56
2024/01/14 07:26:19;;;;;;;10.50;4.63;;;;;;;;;;5016974;28;20026;-55
2024/01/14 07:28:44;;;;;;;9.63;4.20;;;;;;;;;;5009500;28;20034;-55
2024/01/14 07:31:10;;;;;;;12.97;4.57;;;;;;;;;;5011593;28;20026;-56
2024/01/14 07:33:35;;;;;;;11.30;4.70;;;;;;;;;;5008475;28;20131;-56
2024/01/14 07:36:00;;;;;;;10.63;4.25;;;;;;;;;;5011513;28;20028;-56
2024/01/14 07:38:25;;;;;;;11.07;4.55;;;;;;;;;;5009824;28;20072;-55
2024/01/14 07:40:51;;;;;;;9.82;4.10;;;;;;;;;;5012562;28;20026;-55
2024/01/14 07:43:16;;;;;;;12.30;4.47;;;;;;;;;;5005599;28;20057;-55
2024/01/14 07:45:41;;;;;;;10.27;4.55;;;;;;;;;;5010766;28;20100;-54
2024/01/14 07:48:06;;;;;;;9.63;3.95;;;;;;;;;;5007671;28;20042;-54
2024/01/14 07:50:31;;;;;;;9.80;4.10;;;;;;;;;;4997251;28;20047;-54
2024/01/14 07:52:56;;;;;;;9.77;4.32;;;;;;;;;;5013382;28;20021;-56
2024/01/14 07:55:21;;;;;;;9.73;4.03;;;;;;;;;;5013901;28;20033;-57
2024/01/14 07:57:47;;;;;;;9.20;4.18;;;;;;;;;;5012879;28;20033;-56
2024/01/14 08:00:12;;;;;;;10.00;4.65;;;;;;;;;;5008191;28;20032;-56
2024/01/14 08:02:37;;;;;;;10.23;4.57;;;;;;;;;;5007530;28;20030;-55
2024/01/14 08:05:03;;;;;;;10.27;4.53;;;;;;;;;;5009735;28;20037;-56
2024/01/14 08:07:28;;;;;;;9.32;4.38;;;;;;;;;;5010182;28;20030;-56
2024/01/14 08:09:53;;;;;;;9.48;4.18;;;;;;;;;;5014253;28;20052;-56
2024/01/14 08:12:18;;;;;;;9.23;4.17;;;;;;;;;;5012230;28;20030;-56
2024/01/14 08:14:43;;;;;;;10.00;4.05;;;;;;;;;;5017651;28;20036;-54
2024/01/14 08:17:09;;;;;;;10.93;4.50;;;;;;;;;;5010397;28;20030;-56
2024/01/14 08:19:35;;;;;;;11.30;4.35;;;;;;;;;;5014720;28;20608;-56
2024/01/14 08:22:00;;;;;;;10.10;4.10;;;;;;;;;;5006768;28;20029;-56
2024/01/14 08:24:25;;;;;;;9.68;4.05;;;;;;;;;;5003023;28;20437;-57
2024/01/14 08:26:50;;;;;;;11.00;4.28;;;;;;;;;;5010077;28;20512;-55
2024/01/14 08:29:16;;;;;;;10.27;4.23;;;;;;;;;;5019466;28;20028;-56
2024/01/14 08:31:41;;;;;;;10.77;4.35;;;;;;;;;;5006044;28;20095;-57
2024/01/14 08:34:07;;;;;;;11.00;4.70;;;;;;;;;;5004224;28;20069;-56
2024/01/14 08:36:32;;;;;;;11.20;4.53;;;;;;;;;;5013960;28;20017;-56
2024/01/14 08:38:57;;;;;;;10.13;4.55;;;;;;;;;;5014252;28;20018;-55
2024/01/14 08:41:24;;;;;;;10.85;4.95;;;;;;;;;;5010240;28;20453;-56
2024/01/14 08:43:50;;;;;;;12.90;4.38;;;;;;;;;;5010821;28;20026;-56
2024/01/14 08:46:15;;;;;;;10.27;4.47;;;;;;;;;;5009761;28;20022;-56
2024/01/14 08:48:42;;;;;;;10.33;4.33;;;;;;;;;;5005109;28;20389;-56
2024/01/14 08:51:07;;;;;;;;;;;;;;;;;;5004942;28;20045;-57
2024/01/14 08:53:32;;;;;;;10.52;4.30;;;;;;;;;;5009912;28;19909;-56
2024/01/14 08:55:57;;;;;;;10.60;4.28;;;;;;;;;;5006606;28;20046;-56
2024/01/14 08:58:22;;;;;;;9.50;3.88;;;;;;;;;;5012613;28;20535;-55
2024/01/14 09:00:48;;;;;;;10.45;4.35;;;;;;;;;;5012140;28;20018;-56
2024/01/14 09:03:13;;;;;;;9.27;4.13;;;;;;;;;;5011775;28;20018;-55
2024/01/14 09:05:38;;;;;;;9.87;4.10;;;;;;;;;;5012265;28;20025;-56
2024/01/14 09:08:03;;;;;;;10.57;4.20;;;;;;;;;;5012171;28;20214;-56
2024/01/14 09:10:28;;;;;;;10.80;4.18;;;;;;;;;;5010769;28;20036;-56
2024/01/14 09:12:53;;;;;;;9.63;4.23;;;;;;;;;;5011523;28;20029;-55
2024/01/14 09:15:19;;;;;;;10.85;4.45;;;;;;;;;;5011094;28;20045;-55
2024/01/14 09:17:45;;;;;;;9.77;4.57;;;;;;;;;;5011613;28;20018;-55
2024/01/14 09:20:10;;;;;;;9.47;4.10;;;;;;;;;;5011987;28;20144;-56
2024/01/14 09:22:36;;;;;;;9.43;4.03;;;;;;;;;;5009720;28;20044;-56
2024/01/14 09:25:01;;;;;;;10.30;4.45;;;;;;;;;;5010842;28;20448;-56
2024/01/14 09:27:29;;;;;;;9.43;4.18;;;;;;;;;;5011739;28;20033;-55
2024/01/14 09:29:55;;;;;;;9.07;3.80;;;;;;;;;;5009927;28;20563;-56
2024/01/14 09:32:20;;;;;;;9.97;4.53;;;;;;;;;;5011059;28;20014;-56
2024/01/14 09:34:45;;;;;;;10.80;4.22;;;;;;;;;;5011421;28;20478;-56
2024/01/14 09:37:10;;;;;;;10.80;4.13;;;;;;;;;;5011285;28;20030;-55
2024/01/14 09:39:35;;;;;;;10.73;4.40;;;;;;;;;;5010684;28;20397;-56
2024/01/14 09:42:07;;;;;;;10.10;4.40;;;;;;;;;;5007497;28;20057;-56
2024/01/14 09:44:32;;;;;;;10.82;4.40;;;;;;;;;;4993164;28;20018;-56
2024/01/14 09:46:58;;;;;;;8.83;4.00;;;;;;;;;;5009525;28;20033;-56
2024/01/14 09:49:23;;;;;;;11.75;4.78;;;;;;;;;;5010696;28;20647;-56
2024/01/14 09:51:49;;;;;;;8.77;3.70;;;;;;;;;;5011012;28;20022;-56
2024/01/14 09:54:14;;;;;;;9.82;4.28;;;;;;;;;;5010892;28;20034;-55
2024/01/14 09:56:40;;;;;;;9.82;4.18;;;;;;;;;;5011538;28;20033;-56
2024/01/14 09:59:07;;;;;;;10.15;4.40;;;;;;;;;;5011667;28;20394;-55
2024/01/14 10:01:32;;;;;;;10.95;4.78;;;;;;;;;;5011395;28;20079;-55
2024/01/14 10:04:01;;;;;;;10.13;4.13;;;;;;;;;;5011440;28;20105;-56
2024/01/14 10:06:27;;;;;;;9.88;4.22;;;;;;;;;;5010553;28;20032;-56
2024/01/14 10:08:52;;;;;;;11.05;4.50;;;;;;;;;;5011307;28;20018;-56
2024/01/14 10:11:17;;;;;;;10.13;3.97;;;;;;;;;;5011421;28;20176;-57
2024/01/14 10:13:42;;;;;;;9.30;3.88;;;;;;;;;;5011385;28;20514;-55
2024/01/14 10:16:10;;;;;;;8.38;4.13;;;;;;;;;;5011902;28;20478;-56
2024/01/14 10:18:36;;;;;;;8.52;3.75;;;;;;;;;;5011883;28;20054;-56
2024/01/14 10:21:01;;;;;;;9.27;3.90;;;;;;;;;;5010748;28;20544;-56
2024/01/14 10:23:26;;;;;;;9.50;3.90;;;;;;;;;;5008824;28;20014;-54
2024/01/14 10:25:52;;;;;;;9.27;3.95;;;;;;;;;;4998857;28;20057;-56
2024/01/14 10:28:17;;;;;;;10.05;3.60;;;;;;;;;;5011355;28;20548;-56
2024/01/14 10:30:43;;;;;;;7.73;3.40;;;;;;;;;;5015135;28;20079;-55
2024/01/14 10:33:09;;;;;;;9.68;4.00;;;;;;;;;;5014704;28;20436;-56
2024/01/14 10:35:34;;;;;;;11.25;4.32;;;;;;;;;;5015225;28;20026;-57
2024/01/14 10:38:01;;;;;;;9.30;4.03;;;;;;;;;;5013712;28;20026;-55
2024/01/14 10:40:26;;;;;;;10.77;4.32;;;;;;;;;;5014527;28;20018;-55
2024/01/14 10:42:52;;;;;;;8.97;4.03;;;;;;;;;;5012639;28;20018;-56
2024/01/14 10:45:17;;;;;;;9.70;3.80;;;;;;;;;;5013475;28;20076;-56
2024/01/14 10:47:46;;;;;;;10.57;4.43;;;;;;;;;;5015122;28;20104;-55
2024/01/14 10:50:12;;;;;;;9.40;4.00;;;;;;;;;;5015064;28;20030;-56
2024/01/14 10:52:39;;;;;;;10.05;3.95;;;;;;;;;;5012544;28;20026;-56
2024/01/14 10:55:22;;;;;;;10.88;4.72;;;;;;;;;;5014570;28;20026;-57
2024/01/14 10:57:49;;;;;;;9.10;4.25;;;;;;;;;;5014865;28;20529;-56
2024/01/14 11:00:14;;;;;;;10.20;4.80;;;;;;;;;;5014436;28;20056;-56
2024/01/14 11:02:40;;;;;;;9.30;4.50;;;;;;;;;;4997081;28;20058;-56
2024/01/14 11:05:06;;;;;;;9.85;4.28;;;;;;;;;;4995039;28;20445;-56
2024/01/14 11:07:35;;;;;;;9.88;4.05;;;;;;;;;;5002761;28;20029;-53
2024/01/14 11:10:00;;;;;;;10.98;5.20;;;;;;;;;;5015786;28;20017;-56
2024/01/14 11:12:36;;;;;;;9.98;4.80;;;;;;;;;;5014688;28;20014;-54
2024/01/14 11:15:07;;;;;;;8.90;4.05;;;;;;;;;;5010305;28;20056;-54
2024/01/14 11:17:45;;;;;;;9.05;4.00;;;;;;;;;;5013267;28;20018;-55
2024/01/14 11:20:12;;;;;;;9.95;4.03;;;;;;;;;;5015028;28;20022;-55
2024/01/14 11:22:37;;;;;;;10.27;4.15;;;;;;;;;;5010327;28;20307;-55
2024/01/14 11:25:03;;;;;;;10.17;4.43;;;;;;;;;;5013046;28;20037;-55
2024/01/14 11:27:29;;;;;;;10.68;4.43;;;;;;;;;;5013520;28;20092;-56
2024/01/14 11:29:54;;;;;;;11.70;4.55;;;;;;;;;;5013795;28;20026;-55
2024/01/14 11:32:20;;;;;;;13.10;4.70;;;;;;;;;;5013698;28;20083;-55
2024/01/14 11:34:46;;;;;;;14.50;5.38;;;;;;;;;;5014596;28;20053;-53
2024/01/14 11:37:33;;;;;;;10.52;4.30;;;;;;;;;;5014119;28;20065;-55
2024/01/14 11:40:08;;;;;;;11.60;4.40;;;;;;;;;;5011826;28;20030;-54
2024/01/14 11:42:33;;;;;;;9.73;4.00;;;;;;;;;;5014062;28;20026;-57
2024/01/14 11:45:22;;;;;;;8.63;3.57;;;;;;;;;;5013067;28;20021;-56
2024/01/14 11:47:47;;;;;;;10.75;4.13;;;;;;;;;;5002878;28;20882;-56
2024/01/14 11:50:14;;;;;;;9.70;4.10;;;;;;;;;;5001888;28;20489;-56
2024/01/14 11:52:44;;;;;;;9.25;3.63;;;;;;;;;;5013410;28;20117;-57
2024/01/14 11:55:12;;;;;;;9.95;3.42;;;;;;;;;;5011870;28;20410;-56
2024/01/14 11:57:37;;;;;;;11.52;4.35;;;;;;;;;;5012049;28;20022;-56
2024/01/14 12:00:02;;;;;;;8.10;3.60;;;;;;;;;;5013390;28;20423;-57
2024/01/14 12:02:27;;;;;;;10.77;4.30;;;;;;;;;;5011282;28;20383;-57
2024/01/14 12:04:54;;;;;;;11.15;4.03;;;;;;;;;;5010919;28;20025;-57
2024/01/14 12:07:20;;;;;;;;;;;;;;;;;;5013828;28;20037;-57
2024/01/14 12:09:52;;;;;;;9.37;3.50;;;;;;;;;;5012847;28;20008;-57
2024/01/14 12:12:17;;;;;;;8.55;3.65;;;;;;;;;;5010688;28;20018;-57
2024/01/14 12:14:42;;;;;;;8.37;3.47;;;;;;;;;;5012524;28;20094;-56
2024/01/14 12:17:11;;;;;;;10.02;3.80;;;;;;;;;;5011734;28;20032;-56
2024/01/14 12:19:37;;;;;;;7.78;3.33;;;;;;;;;;5011347;28;20028;-56
2024/01/14 12:22:02;;;;;;;9.77;3.17;;;;;;;;;;5008806;28;20093;-55
2024/01/14 12:24:30;;;;;;;9.50;3.17;;;;;;;;;;5011914;28;20033;-56
2024/01/14 12:26:58;;;;;;;7.57;3.17;;;;;;;;;;5011217;28;20049;-55
2024/01/14 12:29:23;;;;;;;8.93;3.72;;;;;;;;;;5010102;28;20030;-55
2024/01/14 12:31:48;;;;;;;8.15;3.53;;;;;;;;;;5012033;28;20153;-57
2024/01/14 12:34:14;;;;;;;7.90;3.60;;;;;;;;;;5012591;28;20028;-55
2024/01/14 12:36:39;;;;;;;11.35;3.67;;;;;;;;;;5009868;28;20033;-55
2024/01/14 12:39:04;;;;;;;11.13;3.30;;;;;;;;;;5009121;28;20029;-56
2024/01/14 12:41:29;;;;;;;8.27;3.60;;;;;;;;;;5007479;28;20084;-56
2024/01/14 12:43:55;;;;;;;7.40;3.05;;;;;;;;;;5005225;28;20413;-56
2024/01/14 12:46:20;;;;;;;9.07;3.83;;;;;;;;;;5007489;28;20029;-54
2024/01/14 12:48:45;;;;;;;10.80;3.40;;;;;;;;;;5009247;28;20312;-56
2024/01/14 12:51:10;;;;;;;9.67;3.40;;;;;;;;;;5007224;28;20605;-56
2024/01/14 12:53:35;;;;;;;9.30;3.40;;;;;;;;;;5008275;28;20025;-54
2024/01/14 12:56:10;;;;;;;9.77;3.33;;;;;;;;;;5007951;28;20021;-57
2024/01/14 12:58:35;;;;;;;9.90;3.58;;;;;;;;;;5011005;28;20022;-56
2024/01/14 13:01:00;;;;;;;8.03;3.17;;;;;;;;;;5008158;28;20037;-55
2024/01/14 13:03:26;;;;;;;8.33;3.63;;;;;;;;;;5008374;28;20371;-56
2024/01/14 13:05:51;;;;;;;8.40;3.30;;;;;;;;;;5007993;28;20104;-57
2024/01/14 13:08:17;;;;;;;8.70;3.17;;;;;;;;;;4995543;28;20045;-54
2024/01/14 13:10:42;;;;;;;7.57;3.15;;;;;;;;;;5006392;28;20057;-56
2024/01/14 13:13:07;;;;;;;7.85;2.92;;;;;;;;;;5008187;28;20037;-54
2024/01/14 13:15:33;;;;;;;7.88;3.45;;;;;;;;;;5008881;28;20076;-57
2024/01/14 13:17:59;;;;;;;10.35;3.28;;;;;;;;;;5008088;28;20022;-56
2024/01/14 13:20:24;;;;;;;7.80;3.15;;;;;;;;;;5008168;28;20038;-55
2024/01/14 13:22:50;;;;;;;7.87;3.23;;;;;;;;;;5007614;28;20080;-55
2024/01/14 13:25:15;;;;;;;8.57;3.47;;;;;;;;;;5007928;28;20018;-56
2024/01/14 13:27:40;;;;;;;8.85;3.67;;;;;;;;;;5008364;28;20477;-54
2024/01/14 13:30:07;;;;;;;9.85;3.67;;;;;;;;;;5008201;28;20101;-56
2024/01/14 13:32:36;;;;;;;7.95;3.15;;;;;;;;;;5008234;28;20094;-55
2024/01/14 13:35:01;;;;;;;8.25;3.20;;;;;;;;;;5008707;28;20030;-55
2024/01/14 13:37:26;;;;;;;8.20;3.30;;;;;;;;;;5008252;28;20026;-56
2024/01/14 13:39:52;;;;;;;8.38;3.20;;;;;;;;;;5006983;28;20033;-55
2024/01/14 13:42:18;;;;;;;8.05;3.45;;;;;;;;;;5007770;28;20022;-55
2024/01/14 13:44:43;;;;;;;8.03;3.53;;;;;;;;;;5007849;28;20014;-55
2024/01/14 13:47:08;;;;;;;8.15;3.40;;;;;;;;;;5007465;28;20025;-55
2024/01/14 13:49:34;;;;;;;8.50;3.50;;;;;;;;;;5007930;28;20017;-55
2024/01/14 13:51:59;;;;;;;8.43;3.50;;;;;;;;;;5008133;28;20037;-55
2024/01/14 13:54:24;;;;;;;8.30;3.10;;;;;;;;;;5002898;28;20026;-55
2024/01/14 13:56:54;;;;;;;8.00;3.30;;;;;;;;;;5005720;28;20022;-55
2024/01/14 13:59:19;;;;;;;7.95;3.28;;;;;;;;;;5005841;28;20034;-55
2024/01/14 14:01:44;;;;;;;9.38;3.17;;;;;;;;;;4990474;28;20046;-55
2024/01/14 14:04:09;;;;;;;7.35;2.85;;;;;;;;;;5006397;28;20034;-54
2024/01/14 14:06:35;;;;;;;8.50;3.60;;;;;;;;;;5010071;28;20049;-54
2024/01/14 14:09:01;;;;;;;8.63;3.30;;;;;;;;;;5014274;28;20465;-55
2024/01/14 14:11:26;;;;;;;8.18;3.42;;;;;;;;;;5010973;28;20390;-55
2024/01/14 14:13:51;;;;;;;7.60;3.20;;;;;;;;;;5010223;28;20041;-56
2024/01/14 14:16:16;;;;;;;9.05;3.40;;;;;;;;;;5016759;28;20021;-55
2024/01/14 14:18:41;;;;;;;9.30;3.38;;;;;;;;;;5017654;28;20034;-55
2024/01/14 14:21:07;;;;;;;8.15;3.60;;;;;;;;;;5015308;28;20500;-56
2024/01/14 14:23:32;;;;;;;7.28;3.20;;;;;;;;;;5007031;28;20057;-56
2024/01/14 14:25:57;;;;;;;8.35;3.45;;;;;;;;;;5014808;28;20030;-56
2024/01/14 14:28:22;;;;;;;8.80;3.23;;;;;;;;;;5014119;28;20520;-55
2024/01/14 14:30:47;;;;;;;8.60;3.30;;;;;;;;;;5014212;28;20149;-54